Minerva Virgo — SXXT — position and weather

sailwx.info

Track history (hours):
 
Tides and Currents Weather Stations Pressure Air Temp Water Temp Dewpoint Dewpoint Depression Visibility Wind Speed Wind Dir Waves Ship Positions

Minerva Virgo

Last reported at 2014-Nov-13 05:29 UTC. Time now 2014-Nov-23 08:22 UTC.
Position N 36°23' E 022°48'.
Warning: this ship's position is 10 days out of date.

Length 182 m; draft 12.8 m.

Type: Tanker. MMSI: 240730000.

Date/timePositionNaut miles runAvg speedWind from/ knotsBaromVisibWave heightAir tempDewpointWater temp
2014-Nov-13 05:29N 36°23' E 022°48'2510.5
2014-Nov-13 03:07N 36°28' E 023°18'1111.3
2014-Nov-13 02:09N 36°38' E 023°25'3211.4
2014-Nov-12 23:19N 37°05' E 023°46'1111.5
2014-Nov-12 22:20N 37°15' E 023°53'911.8
2014-Nov-12 21:33N 37°23' E 023°59'1212.0
2014-Nov-12 20:33N 37°33' E 024°07'1411.8
2014-Nov-12 19:24N 37°45' E 024°16'1012.1
2014-Nov-12 18:33N 37°51' E 024°27'2911.5
2014-Nov-12 16:03N 38°14' E 024°47'240 7.4
2014-Nov-11 07:30N 40°54' E 028°40'9 9.6
2014-Nov-11 06:32N 40°57' E 028°52'1 0.2
2014-Nov-11 01:31N 40°57' E 028°52'27 2.4
2014-Nov-10 14:10N 41°21' E 029°06'1 1.6
2014-Nov-10 13:33N 41°21' E 029°08'4 3.8
2014-Nov-10 12:28N 41°21' E 029°13'1 0.7
2014-Nov-10 11:31N 41°22' E 029°13'1 0.6
2014-Nov-10 09:31N 41°23' E 029°12'1 0.5
2014-Nov-10 08:13N 41°23' E 029°11'0 0.4
2014-Nov-10 07:19N 41°23' E 029°11'0 0.4
2014-Nov-10 06:28N 41°23' E 029°10'4 3.0
2014-Nov-10 05:17N 41°25' E 029°14'811.0
2014-Nov-10 04:33N 41°27' E 029°25'1211.4
2014-Nov-10 03:28N 41°29' E 029°41'16811.3
2014-Nov-09 12:32N 42°17' E 033°17'1611.5
2014-Nov-09 11:10N 42°18' E 033°39'1111.3
2014-Nov-09 10:10N 42°18' E 033°54'2810.6
2014-Nov-09 07:33N 42°20' E 034°31'1111.0
2014-Nov-09 06:33N 42°20' E 034°46'1110.8
2014-Nov-09 05:33N 42°21' E 035°01'1110.9
2014-Nov-09 04:33N 42°19' E 035°15'1110.7
2014-Nov-09 03:33N 42°18' E 035°30'1110.5
2014-Nov-09 02:33N 42°17' E 035°44'1510.8
2014-Nov-09 01:11N 42°15' E 036°04'911.1
2014-Nov-09 00:20N 42°13' E 036°16'1111.3
2014-Nov-08 23:24N 42°12' E 036°30'911.0
2014-Nov-08 22:33N 42°11' E 036°43'1110.9
2014-Nov-08 21:33N 42°09' E 036°57'1111.2
2014-Nov-08 20:33N 42°08' E 037°12'1111.3
2014-Nov-08 19:33N 42°06' E 037°27'1111.4
2014-Nov-08 18:33N 42°05' E 037°43'1211.6
2014-Nov-08 17:33N 42°03' E 037°58'1211.6
2014-Nov-08 16:33N 42°02' E 038°14'1111.4
2014-Nov-08 15:33N 42°00' E 038°29'1111.3
2014-Nov-08 14:33N 41°59' E 038°44'1111.3
2014-Nov-08 13:33N 41°57' E 038°59'1111.4
2014-Nov-08 12:33N 41°56' E 039°14'1111.4
2014-Nov-08 11:33N 41°54' E 039°29'1211.4
2014-Nov-08 10:31N 41°53' E 039°45'1111.1
2014-Nov-08 09:33N 41°51' E 039°59'  
Track history (hours):
 
Tides and Currents Weather Stations Pressure Air Temp Water Temp Dewpoint Dewpoint Depression Visibility Wind Speed Wind Dir Waves Ship Positions

Minerva Virgo

Last reported at 2014-Nov-13 05:29 UTC. Time now 2014-Nov-23 08:22 UTC.
Position N 36°23' E 022°48'.
Warning: this ship's position is 10 days out of date.

Length 182 m; draft 12.8 m.

Type: Tanker. MMSI: 240730000.

Date/timePositionNaut miles runAvg speedWind from/ knotsBaromVisibWave heightAir tempDewpointWater temp
2014-Nov-13 05:29N 36°23' E 022°48'2510.5
2014-Nov-13 03:07N 36°28' E 023°18'1111.3
2014-Nov-13 02:09N 36°38' E 023°25'3211.4
2014-Nov-12 23:19N 37°05' E 023°46'1111.5
2014-Nov-12 22:20N 37°15' E 023°53'911.8
2014-Nov-12 21:33N 37°23' E 023°59'1212.0
2014-Nov-12 20:33N 37°33' E 024°07'1411.8
2014-Nov-12 19:24N 37°45' E 024°16'1012.1
2014-Nov-12 18:33N 37°51' E 024°27'2911.5
2014-Nov-12 16:03N 38°14' E 024°47'240 7.4
2014-Nov-11 07:30N 40°54' E 028°40'9 9.6
2014-Nov-11 06:32N 40°57' E 028°52'1 0.2
2014-Nov-11 01:31N 40°57' E 028°52'27 2.4
2014-Nov-10 14:10N 41°21' E 029°06'1 1.6
2014-Nov-10 13:33N 41°21' E 029°08'4 3.8
2014-Nov-10 12:28N 41°21' E 029°13'1 0.7
2014-Nov-10 11:31N 41°22' E 029°13'1 0.6
2014-Nov-10 09:31N 41°23' E 029°12'1 0.5
2014-Nov-10 08:13N 41°23' E 029°11'0 0.4
2014-Nov-10 07:19N 41°23' E 029°11'0 0.4
2014-Nov-10 06:28N 41°23' E 029°10'4 3.0
2014-Nov-10 05:17N 41°25' E 029°14'811.0
2014-Nov-10 04:33N 41°27' E 029°25'1211.4
2014-Nov-10 03:28N 41°29' E 029°41'16811.3
2014-Nov-09 12:32N 42°17' E 033°17'1611.5
2014-Nov-09 11:10N 42°18' E 033°39'1111.3
2014-Nov-09 10:10N 42°18' E 033°54'2810.6
2014-Nov-09 07:33N 42°20' E 034°31'1111.0
2014-Nov-09 06:33N 42°20' E 034°46'1110.8
2014-Nov-09 05:33N 42°21' E 035°01'1110.9
2014-Nov-09 04:33N 42°19' E 035°15'1110.7
2014-Nov-09 03:33N 42°18' E 035°30'1110.5
2014-Nov-09 02:33N 42°17' E 035°44'1510.8
2014-Nov-09 01:11N 42°15' E 036°04'911.1
2014-Nov-09 00:20N 42°13' E 036°16'1111.3
2014-Nov-08 23:24N 42°12' E 036°30'911.0
2014-Nov-08 22:33N 42°11' E 036°43'1110.9
2014-Nov-08 21:33N 42°09' E 036°57'1111.2
2014-Nov-08 20:33N 42°08' E 037°12'1111.3
2014-Nov-08 19:33N 42°06' E 037°27'1111.4
2014-Nov-08 18:33N 42°05' E 037°43'1211.6
2014-Nov-08 17:33N 42°03' E 037°58'1211.6
2014-Nov-08 16:33N 42°02' E 038°14'1111.4
2014-Nov-08 15:33N 42°00' E 038°29'1111.3
2014-Nov-08 14:33N 41°59' E 038°44'1111.3
2014-Nov-08 13:33N 41°57' E 038°59'1111.4
2014-Nov-08 12:33N 41°56' E 039°14'1111.4
2014-Nov-08 11:33N 41°54' E 039°29'1211.4
2014-Nov-08 10:31N 41°53' E 039°45'1111.1
2014-Nov-08 09:33N 41°51' E 039°59'  

Dump ship's entire track history